Time,TemperatureF,DewpointF,PressureIn,WindDirection,WindDirectionDegrees,WindSpeedMPH,WindSpeedGustMPH,Humidity,HourlyPrecipIn,Conditions,Clouds,dailyrainin,SoftwareType,DateUTC
2013-03-24 00:00:00,36.3,15.4,29.89,WNW,291,5.0,11.0,42,0.00,FEW,,0.00,WeatherDisplay:10.37,2013-03-24 04:00:00,
2013-03-24 00:05:00,36.3,15.4,29.89,WNW,300,10.0,16.0,42,0.00,CLR,,0.00,WeatherDisplay:10.37,2013-03-24 04:05:00,
2013-03-24 00:10:00,36.4,15.4,29.89,NW,305,7.0,16.0,42,0.00,CLR,,0.00,WeatherDisplay:10.37,2013-03-24 04:10:00,
2013-03-24 00:15:00,36.5,15.6,29.89,NW,309,6.0,12.0,42,0.00,CLR,,0.00,WeatherDisplay:10.37,2013-03-24 04:15:00,
2013-03-24 00:20:00,36.4,15.5,29.89,NW,311,2.0,10.0,42,0.00,CLR,,0.00,WeatherDisplay:10.37,2013-03-24 04:20:00,
2013-03-24 00:25:00,36.5,15.6,29.89,NW,316,3.0,8.0,42,0.00,CLR,,0.00,WeatherDisplay:10.37,2013-03-24 04:25:00,
2013-03-24 00:30:00,36.5,15.6,29.88,NNW,334,7.0,11.0,42,0.00,CLR,,0.00,WeatherDisplay:10.37,2013-03-24 04:30:00,
2013-03-24 00:35:00,36.5,16.1,29.88,NW,323,7.0,13.0,43,0.00,CLR,,0.00,WeatherDisplay:10.37,2013-03-24 04:35:00,
2013-03-24 00:40:00,36.3,15.9,29.88,NW,307,3.0,8.0,43,0.00,CLR,,0.00,WeatherDisplay:10.37,2013-03-24 04:40:00,
2013-03-24 00:45:00,36.3,15.9,29.88,WNW,291,2.0,11.0,43,0.00,CLR,,0.00,WeatherDisplay:10.37,2013-03-24 04:45:00,
2013-03-24 00:50:00,36.1,15.8,29.88,WNW,285,7.0,13.0,43,0.00,CLR,,0.00,WeatherDisplay:10.37,2013-03-24 04:50:00,
2013-03-24 00:55:00,36.1,15.7,29.88,NW,316,6.0,14.0,43,0.00,CLR,,0.00,WeatherDisplay:10.37,2013-03-24 04:55:00,
2013-03-24 01:00:00,36.1,15.8,29.88,WNW,295,12.0,21.0,43,0.00,CLR,,0.00,WeatherDisplay:10.37,2013-03-24 05:00:00,
2013-03-24 01:05:00,36.1,15.8,29.88,WNW,296,5.0,9.0,43,0.00,BKN,,0.00,WeatherDisplay:10.37,2013-03-24 05:05:00,
2013-03-24 01:10:00,36.0,15.6,29.88,NW,310,8.0,15.0,43,0.00,BKN,,0.00,WeatherDisplay:10.37,2013-03-24 05:10:00,
2013-03-24 01:15:00,36.0,15.6,29.88,NW,311,5.0,15.0,43,0.00,BKN,,0.00,WeatherDisplay:10.37,2013-03-24 05:15:00,
2013-03-24 01:20:00,35.8,15.4,29.88,NW,322,6.0,11.0,43,0.00,BKN,,0.00,WeatherDisplay:10.37,2013-03-24 05:20:00,
2013-03-24 01:25:00,35.6,15.3,29.88,NNW,329,2.0,10.0,43,0.00,BKN,,0.00,WeatherDisplay:10.37,2013-03-24 05:25:00,
2013-03-24 01:30:00,35.5,15.7,29.88,NW,319,3.0,11.0,44,0.00,BKN,,0.00,WeatherDisplay:10.37,2013-03-24 05:30:00,
2013-03-24 01:35:00,35.4,16.2,29.88,NW,312,2.0,12.0,45,0.00,BKN,,0.00,WeatherDisplay:10.37,2013-03-24 05:35:00,
2013-03-24 01:40:00,35.2,16.0,29.88,NW,312,3.0,8.0,45,0.00,BKN,,0.00,WeatherDisplay:10.37,2013-03-24 05:40:00,
2013-03-24 01:45:00,35.2,16.0,29.88,NNW,340,2.0,8.0,45,0.00,BKN,,0.00,WeatherDisplay:10.37,2013-03-24 05:45:00,
2013-03-24 01:50:00,35.1,15.8,29.88,NW,311,3.0,6.0,45,0.00,BKN,,0.00,WeatherDisplay:10.37,2013-03-24 05:50:00,
2013-03-24 01:56:00,34.9,15.7,29.87,West,279,3.0,7.0,45,0.00,BKN,,0.00,WeatherDisplay:10.37,2013-03-24 05:56:00,
2013-03-24 02:01:00,34.9,15.7,29.87,West,274,1.0,6.0,45,0.00,BKN,,0.00,WeatherDisplay:10.37,2013-03-24 06:01:00,
2013-03-24 02:06:00,34.7,15.5,29.87,WNW,294,2.0,6.0,45,0.00,CLR,,0.00,WeatherDisplay:10.37,2013-03-24 06:06:00,
2013-03-24 02:11:00,34.7,16.0,29.87,WNW,302,1.0,6.0,46,0.00,CLR,,0.00,WeatherDisplay:10.37,2013-03-24 06:11:00,
2013-03-24 02:16:00,34.5,15.8,29.87,NW,305,2.0,5.0,46,0.00,CLR,,0.00,WeatherDisplay:10.37,2013-03-24 06:16:00,
2013-03-24 02:21:00,34.5,15.8,29.87,NW,316,2.0,4.0,46,0.00,CLR,,0.00,WeatherDisplay:10.37,2013-03-24 06:21:00,
2013-03-24 02:26:00,34.3,15.7,29.86,NW,314,2.0,4.0,46,0.00,CLR,,0.00,WeatherDisplay:10.37,2013-03-24 06:26:00,
2013-03-24 02:31:00,34.2,15.5,29.86,WNW,294,2.0,5.0,46,0.00,CLR,,0.00,WeatherDisplay:10.37,2013-03-24 06:31:00,
2013-03-24 02:36:00,34.2,15.5,29.86,WNW,295,1.0,4.0,46,0.00,CLR,,0.00,WeatherDisplay:10.37,2013-03-24 06:36:00,
2013-03-24 02:41:00,34.0,15.3,29.85,NW,305,0.0,2.0,46,0.00,CLR,,0.00,WeatherDisplay:10.37,2013-03-24 06:41:00,
2013-03-24 02:46:00,33.8,15.2,29.85,NW,314,2.0,6.0,46,0.00,CLR,,0.00,WeatherDisplay:10.37,2013-03-24 06:46:00,
2013-03-24 02:51:00,33.8,15.7,29.84,WNW,295,1.0,6.0,47,0.00,CLR,,0.00,WeatherDisplay:10.37,2013-03-24 06:51:00,
2013-03-24 02:56:00,33.8,15.7,29.84,WNW,290,2.0,6.0,47,0.00,CLR,,0.00,WeatherDisplay:10.37,2013-03-24 06:56:00,
2013-03-24 03:01:00,33.6,16.0,29.85,West,278,1.0,6.0,48,0.00,CLR,,0.00,WeatherDisplay:10.37,2013-03-24 07:01:00,
2013-03-24 03:06:00,33.5,15.9,29.86,SW,227,1.0,2.0,48,0.00,CLR,,0.00,WeatherDisplay:10.37,2013-03-24 07:06:00,
2013-03-24 03:16:00,33.3,15.7,29.86,SW,219,1.0,2.0,48,0.00,CLR,,0.00,WeatherDisplay:10.37,2013-03-24 07:16:00,
2013-03-24 03:21:00,33.3,15.7,29.86,SSW,193,1.0,3.0,48,0.00,CLR,,0.00,WeatherDisplay:10.37,2013-03-24 07:21:00,
2013-03-24 03:26:00,33.1,16.0,29.86,South,184,1.0,2.0,49,0.00,CLR,,0.00,WeatherDisplay:10.37,2013-03-24 07:26:00,
2013-03-24 03:31:00,32.9,15.8,29.87,SSE,161,0.0,2.0,49,0.00,CLR,,0.00,WeatherDisplay:10.37,2013-03-24 07:31:00,
2013-03-24 03:41:00,32.4,15.8,29.87,West,276,1.0,2.0,50,0.00,CLR,,0.00,WeatherDisplay:10.37,2013-03-24 07:41:00,
2013-03-24 03:46:00,32.2,15.6,29.87,SSW,199,0.0,2.0,50,0.00,CLR,,0.00,WeatherDisplay:10.37,2013-03-24 07:46:00,
2013-03-24 03:51:00,32.0,15.4,29.86,SE,145,1.0,2.0,50,0.00,CLR,,0.00,WeatherDisplay:10.37,2013-03-24 07:51:00,
2013-03-24 03:56:00,31.8,15.7,29.86,South,171,1.0,2.0,51,0.00,CLR,,0.00,WeatherDisplay:10.37,2013-03-24 07:56:00,
2013-03-24 04:01:00,31.8,15.7,29.86,WSW,240,2.0,3.0,51,0.00,CLR,,0.00,WeatherDisplay:10.37,2013-03-24 08:01:00,
2013-03-24 04:26:00,31.3,16.1,29.86,SE,125,1.0,2.0,53,0.00,CLR,,0.00,WeatherDisplay:10.37,2013-03-24 08:26:00,
2013-03-24 04:31:00,31.1,15.9,29.87,South,177,1.0,2.0,53,0.00,CLR,,0.00,WeatherDisplay:10.37,2013-03-24 08:31:00,
2013-03-24 04:46:00,30.7,16.0,29.87,WSW,246,0.0,2.0,54,0.00,CLR,,0.00,WeatherDisplay:10.37,2013-03-24 08:46:00,
2013-03-24 04:56:00,30.3,15.6,29.88,ESE,119,1.0,2.0,54,0.00,CLR,,0.00,WeatherDisplay:10.37,2013-03-24 08:56:00,
2013-03-24 05:06:00,29.8,16.0,29.88,SE,135,1.0,2.0,56,0.00,CLR,,0.00,WeatherDisplay:10.37,2013-03-24 09:06:00,
2013-03-24 05:11:00,29.8,16.0,29.88,SE,135,1.0,2.0,56,0.00,CLR,,0.00,WeatherDisplay:10.37,2013-03-24 09:11:00,
2013-03-24 05:16:00,30.0,16.2,29.87,SE,135,1.0,2.0,56,0.00,CLR,,0.00,WeatherDisplay:10.37,2013-03-24 09:16:00,
2013-03-24 05:21:00,30.0,16.2,29.88,SE,125,0.0,2.0,56,0.00,CLR,,0.00,WeatherDisplay:10.37,2013-03-24 09:21:00,
2013-03-24 05:26:00,30.0,16.2,29.88,NE,42,0.0,2.0,56,0.00,CLR,,0.00,WeatherDisplay:10.37,2013-03-24 09:26:00,
2013-03-24 05:31:00,30.0,16.2,29.88,North,2,0.0,1.0,56,0.00,CLR,,0.00,WeatherDisplay:10.37,2013-03-24 09:31:00,
2013-03-24 05:36:00,29.8,16.5,29.88,NE,41,0.0,2.0,57,0.00,CLR,,0.00,WeatherDisplay:10.37,2013-03-24 09:36:00,
2013-03-24 05:41:00,29.8,16.4,29.88,East,100,1.0,2.0,57,0.00,CLR,,0.00,WeatherDisplay:10.37,2013-03-24 09:41:00,
2013-03-24 05:46:00,29.5,16.1,29.88,SSE,158,1.0,2.0,57,0.00,CLR,,0.00,WeatherDisplay:10.37,2013-03-24 09:46:00,
2013-03-24 05:56:00,29.5,16.1,29.88,SSE,160,0.0,2.0,57,0.00,CLR,,0.00,WeatherDisplay:10.37,2013-03-24 09:56:00,
2013-03-24 06:06:00,29.5,16.1,29.88,SSW,197,1.0,2.0,57,0.00,CLR,,0.00,WeatherDisplay:10.37,2013-03-24 10:06:00,
2013-03-24 06:11:00,29.8,16.4,29.89,SSW,194,0.0,3.0,57,0.00,CLR,,0.00,WeatherDisplay:10.37,2013-03-24 10:11:00,
2013-03-24 06:16:00,29.8,16.4,29.88,SSW,200,0.0,2.0,57,0.00,CLR,,0.00,WeatherDisplay:10.37,2013-03-24 10:16:00,
2013-03-24 06:26:00,29.8,16.4,29.88,NE,53,1.0,2.0,57,0.00,CLR,,0.00,WeatherDisplay:10.37,2013-03-24 10:26:00,
2013-03-24 06:31:00,29.7,16.3,29.89,SE,128,1.0,2.0,57,0.00,CLR,,0.00,WeatherDisplay:10.37,2013-03-24 10:31:00,
2013-03-24 06:40:00,29.1,15.8,29.89,East,94,0.0,1.0,57,0.00,CLR,,0.00,WeatherDisplay:10.37,2013-03-24 10:40:00,
2013-03-24 06:45:00,28.9,16.0,29.88,East,100,1.0,2.0,58,0.00,CLR,,0.00,WeatherDisplay:10.37,2013-03-24 10:45:00,
2013-03-24 06:50:00,28.8,15.8,29.88,NE,42,0.0,2.0,58,0.00,CLR,,0.00,WeatherDisplay:10.37,2013-03-24 10:50:00,
2013-03-24 06:55:00,28.8,15.8,29.89,ENE,60,1.0,2.0,58,0.00,CLR,,0.00,WeatherDisplay:10.37,2013-03-24 10:55:00,
2013-03-24 07:00:00,28.6,15.7,29.89,ESE,102,0.0,2.0,58,0.00,CLR,,0.00,WeatherDisplay:10.37,2013-03-24 11:00:00,
2013-03-24 07:05:00,28.6,15.7,29.89,East,79,0.0,2.0,58,0.00,CLR,,0.00,WeatherDisplay:10.37,2013-03-24 11:05:00,
2013-03-24 07:10:00,28.6,16.1,29.89,ENE,67,0.0,2.0,59,0.00,CLR,,0.00,WeatherDisplay:10.37,2013-03-24 11:10:00,
2013-03-24 07:15:00,28.6,16.1,29.89,NNE,17,0.0,2.0,59,0.00,CLR,,0.00,WeatherDisplay:10.37,2013-03-24 11:15:00,
2013-03-24 07:20:00,28.6,16.1,29.89,NNE,20,0.0,2.0,59,0.00,CLR,,0.00,WeatherDisplay:10.37,2013-03-24 11:20:00,
2013-03-24 07:25:00,28.8,16.2,29.88,NNE,20,0.0,2.0,59,0.00,CLR,,0.00,WeatherDisplay:10.37,2013-03-24 11:25:00,
2013-03-24 07:30:00,28.8,16.6,29.89,NNW,331,0.0,2.0,60,0.00,CLR,,0.00,WeatherDisplay:10.37,2013-03-24 11:30:00,
2013-03-24 07:35:00,28.9,17.2,29.89,NNE,17,0.0,2.0,61,0.00,CLR,,0.00,WeatherDisplay:10.37,2013-03-24 11:35:00,
2013-03-24 07:40:00,29.0,17.2,29.90,ESE,114,1.0,2.0,61,0.00,CLR,,0.00,WeatherDisplay:10.37,2013-03-24 11:40:00,
2013-03-24 07:45:00,29.2,17.4,29.90,South,174,1.0,2.0,61,0.00,CLR,,0.00,WeatherDisplay:10.37,2013-03-24 11:45:00,
2013-03-24 07:50:00,29.6,17.8,29.90,SW,229,0.0,3.0,61,0.00,CLR,,0.00,WeatherDisplay:10.37,2013-03-24 11:50:00,
2013-03-24 07:55:00,29.8,18.0,29.90,West,276,1.0,2.0,61,0.00,CLR,,0.00,WeatherDisplay:10.37,2013-03-24 11:55:00,
2013-03-24 08:00:00,30.2,18.0,29.90,NNW,340,1.0,3.0,60,0.00,CLR,,0.00,WeatherDisplay:10.37,2013-03-24 12:00:00,
2013-03-24 08:05:00,30.6,18.3,29.90,NNW,331,1.0,3.0,60,0.00,CLR,,0.00,WeatherDisplay:10.37,2013-03-24 12:05:00,
2013-03-24 08:10:00,30.9,18.7,29.90,North,352,1.0,3.0,60,0.00,CLR,,0.00,WeatherDisplay:10.37,2013-03-24 12:10:00,
2013-03-24 08:15:00,31.3,19.4,29.90,North,355,1.0,5.0,61,0.00,CLR,,0.00,WeatherDisplay:10.37,2013-03-24 12:15:00,
2013-03-24 08:20:00,31.7,19.4,29.90,NNW,338,1.0,5.0,60,0.00,CLR,,0.00,WeatherDisplay:10.37,2013-03-24 12:20:00,
2013-03-24 08:25:00,32.2,18.6,29.90,NW,322,5.0,6.0,57,0.00,CLR,,0.00,WeatherDisplay:10.37,2013-03-24 12:25:00,
2013-03-24 08:30:00,32.7,18.7,29.90,NW,306,2.0,6.0,56,0.00,CLR,,0.00,WeatherDisplay:10.37,2013-03-24 12:30:00,
2013-03-24 08:35:00,33.3,18.8,29.90,NW,308,1.0,5.0,55,0.00,CLR,,0.00,WeatherDisplay:10.37,2013-03-24 12:35:00,
2013-03-24 08:41:00,33.7,18.8,29.89,NNW,331,3.0,8.0,54,0.00,CLR,,0.00,WeatherDisplay:10.37,2013-03-24 12:41:00,
2013-03-24 08:46:00,34.2,18.8,29.89,NW,305,3.0,7.0,53,0.00,CLR,,0.00,WeatherDisplay:10.37,2013-03-24 12:46:00,
2013-03-24 08:51:00,34.5,18.7,29.89,WNW,300,1.0,7.0,52,0.00,CLR,,0.00,WeatherDisplay:10.37,2013-03-24 12:51:00,
2013-03-24 09:16:00,36.3,18.5,29.90,NW,304,6.0,12.0,48,0.00,CLR,,0.00,WeatherDisplay:10.37,2013-03-24 13:16:00,
2013-03-24 09:26:00,37.1,18.7,29.89,WNW,294,2.0,7.0,47,0.00,CLR,,0.00,WeatherDisplay:10.37,2013-03-24 13:26:00,
2013-03-24 09:31:00,37.3,19.4,29.89,WNW,302,6.0,10.0,48,0.00,CLR,,0.00,WeatherDisplay:10.37,2013-03-24 13:31:00,
2013-03-24 09:36:00,37.4,20.0,29.89,NW,313,6.0,12.0,49,0.00,CLR,,0.00,WeatherDisplay:10.37,2013-03-24 13:36:00,
2013-03-24 09:41:00,37.6,20.1,29.89,NNW,332,7.0,12.0,49,0.00,CLR,,0.00,WeatherDisplay:10.37,2013-03-24 13:41:00,
2013-03-24 09:46:00,37.8,20.3,29.89,NW,320,6.0,11.0,49,0.00,CLR,,0.00,WeatherDisplay:10.37,2013-03-24 13:46:00,
2013-03-24 09:51:00,38.1,20.6,29.89,NW,322,5.0,9.0,49,0.00,CLR,,0.00,WeatherDisplay:10.37,2013-03-24 13:51:00,
2013-03-24 09:56:00,38.5,20.9,29.89,NW,326,3.0,9.0,49,0.00,CLR,,0.00,WeatherDisplay:10.37,2013-03-24 13:56:00,
2013-03-24 10:01:00,39.0,21.0,29.88,WNW,298,3.0,9.0,48,0.00,CLR,,0.00,WeatherDisplay:10.37,2013-03-24 14:01:00,
2013-03-24 10:11:00,39.2,20.2,29.88,NW,318,7.0,13.0,46,0.00,CLR,,0.00,WeatherDisplay:10.37,2013-03-24 14:11:00,
2013-03-24 10:16:00,39.4,20.3,29.87,NW,306,6.0,13.0,46,0.00,CLR,,0.00,WeatherDisplay:10.37,2013-03-24 14:16:00,
2013-03-24 10:21:00,39.6,20.5,29.87,NW,306,5.0,11.0,46,0.00,CLR,,0.00,WeatherDisplay:10.37,2013-03-24 14:21:00,
2013-03-24 10:26:00,39.9,20.2,29.87,NW,312,5.0,14.0,45,0.00,CLR,,0.00,WeatherDisplay:10.37,2013-03-24 14:26:00,
2013-03-24 10:32:00,39.9,19.7,29.86,NW,310,6.0,12.0,44,0.00,CLR,,0.00,WeatherDisplay:10.37,2013-03-24 14:32:00,
2013-03-24 10:40:00,40.3,20.6,29.86,WNW,289,2.0,11.0,45,0.00,CLR,,0.00,WeatherDisplay:10.37,2013-03-24 14:40:00,
2013-03-24 10:45:00,41.0,20.7,29.86,NW,306,6.0,9.0,44,0.00,CLR,,0.00,WeatherDisplay:10.37,2013-03-24 14:45:00,
2013-03-24 10:50:00,41.5,20.7,29.85,NW,326,3.0,9.0,43,0.00,CLR,,0.00,WeatherDisplay:10.37,2013-03-24 14:50:00,
2013-03-24 10:55:00,41.7,19.7,29.85,NW,321,6.0,11.0,41,0.00,CLR,,0.00,WeatherDisplay:10.37,2013-03-24 14:55:00,
2013-03-24 11:00:00,41.7,19.7,29.84,NNW,328,5.0,11.0,41,0.00,CLR,,0.00,WeatherDisplay:10.37,2013-03-24 15:00:00,
2013-03-24 11:05:00,41.9,19.9,29.84,NW,322,5.0,11.0,41,0.00,CLR,,0.00,WeatherDisplay:10.37,2013-03-24 15:05:00,
2013-03-24 11:10:00,42.1,20.6,29.84,NNW,328,8.0,15.0,42,0.00,CLR,,0.00,WeatherDisplay:10.37,2013-03-24 15:10:00,
2013-03-24 11:15:00,42.8,21.3,29.84,North,350,6.0,15.0,42,0.00,CLR,,0.00,WeatherDisplay:10.37,2013-03-24 15:15:00,
2013-03-24 11:20:00,43.5,21.9,29.83,North,357,5.0,15.0,42,0.00,CLR,,0.00,WeatherDisplay:10.37,2013-03-24 15:20:00,
2013-03-24 11:26:00,43.9,21.7,29.83,NNW,339,7.0,13.0,41,0.00,CLR,,0.00,WeatherDisplay:10.37,2013-03-24 15:26:00,
2013-03-24 11:31:00,43.5,18.3,29.83,NW,313,3.0,13.0,36,0.00,CLR,,0.00,WeatherDisplay:10.37,2013-03-24 15:31:00,
2013-03-24 11:36:00,43.5,20.2,29.82,NNW,332,3.0,8.0,39,0.00,CLR,,0.00,WeatherDisplay:10.37,2013-03-24 15:36:00,
2013-03-24 11:46:00,44.6,22.3,29.82,NNW,333,5.0,8.0,41,0.00,CLR,,0.00,WeatherDisplay:10.37,2013-03-24 15:46:00,
2013-03-24 12:11:00,44.8,19.4,29.79,NNW,339,3.0,9.0,36,0.00,CLR,,0.00,WeatherDisplay:10.37,2013-03-24 16:11:00,
2013-03-24 12:21:00,45.7,18.9,29.77,NW,317,5.0,9.0,34,0.00,CLR,,0.00,WeatherDisplay:10.37,2013-03-24 16:21:00,
2013-03-24 12:26:00,46.3,20.1,29.77,NNW,345,5.0,10.0,35,0.00,CLR,,0.00,WeatherDisplay:10.37,2013-03-24 16:26:00,
2013-03-24 12:35:00,46.6,18.3,29.77,NNW,345,7.0,8.0,32,0.00,CLR,,0.00,WeatherDisplay:10.37,2013-03-24 16:35:00,
2013-03-24 12:40:00,46.0,17.0,29.78,NW,310,3.0,9.0,31,0.00,CLR,,0.00,WeatherDisplay:10.37,2013-03-24 16:40:00,
2013-03-24 12:45:00,46.2,17.2,29.78,NNW,330,5.0,9.0,31,0.00,CLR,,0.00,WeatherDisplay:10.37,2013-03-24 16:45:00,
2013-03-24 12:50:00,46.4,18.8,29.79,NNW,328,3.0,10.0,33,0.00,CLR,,0.00,WeatherDisplay:10.37,2013-03-24 16:50:00,
2013-03-24 12:55:00,46.0,15.5,29.79,NW,310,3.0,8.0,29,0.00,CLR,,0.00,WeatherDisplay:10.37,2013-03-24 16:55:00,
2013-03-24 13:00:00,46.0,17.0,29.80,WNW,301,1.0,8.0,31,0.00,CLR,,0.00,WeatherDisplay:10.37,2013-03-24 17:00:00,
2013-03-24 13:05:00,46.7,20.4,29.79,North,349,2.0,6.0,35,0.00,CLR,,0.00,WeatherDisplay:10.37,2013-03-24 17:05:00,
2013-03-24 13:11:00,47.3,20.3,29.79,North,2,2.0,4.0,34,0.00,CLR,,0.00,WeatherDisplay:10.37,2013-03-24 17:11:00,
2013-03-24 13:16:00,47.7,19.9,29.79,NW,315,2.0,9.0,33,0.00,CLR,,0.00,WeatherDisplay:10.37,2013-03-24 17:16:00,
2013-03-24 13:31:00,47.3,18.2,29.78,WNW,294,1.0,4.0,31,0.00,CLR,,0.00,WeatherDisplay:10.37,2013-03-24 17:31:00,
2013-03-24 13:36:00,48.1,18.8,29.77,NW,323,2.0,6.0,31,0.00,CLR,,0.00,WeatherDisplay:10.37,2013-03-24 17:36:00,
2013-03-24 13:41:00,48.2,18.2,29.76,NNW,334,1.0,5.0,30,0.00,CLR,,0.00,WeatherDisplay:10.37,2013-03-24 17:41:00,
2013-03-24 13:46:00,48.9,19.5,29.75,NNW,330,2.0,8.0,31,0.00,CLR,,0.00,WeatherDisplay:10.37,2013-03-24 17:46:00,
2013-03-24 13:51:00,49.1,17.3,29.75,NW,318,5.0,8.0,28,0.00,CLR,,0.00,WeatherDisplay:10.37,2013-03-24 17:51:00,
2013-03-24 13:56:00,48.8,18.7,29.75,NNW,329,2.0,6.0,30,0.00,CLR,,0.00,WeatherDisplay:10.37,2013-03-24 17:56:00,
2013-03-24 14:01:00,49.6,19.4,29.74,North,2,5.0,8.0,30,0.00,CLR,,0.00,WeatherDisplay:10.37,2013-03-24 18:01:00,
2013-03-24 14:06:00,50.0,18.1,29.74,NW,323,1.0,9.0,28,0.00,CLR,,0.00,WeatherDisplay:10.37,2013-03-24 18:06:00,
2013-03-24 14:11:00,50.2,19.1,29.73,NNW,331,3.0,8.0,29,0.00,CLR,,0.00,WeatherDisplay:10.37,2013-03-24 18:11:00,
2013-03-24 14:16:00,50.7,19.6,29.73,NNE,33,2.0,6.0,29,0.00,CLR,,0.00,WeatherDisplay:10.37,2013-03-24 18:16:00,
2013-03-24 14:22:00,50.9,18.9,29.71,NNE,18,2.0,7.0,28,0.00,CLR,,0.00,WeatherDisplay:10.37,2013-03-24 18:22:00,
2013-03-24 14:27:00,50.9,18.9,29.71,NE,35,1.0,6.0,28,0.00,CLR,,0.00,WeatherDisplay:10.37,2013-03-24 18:27:00,
2013-03-24 14:35:00,50.7,18.8,29.70,NNW,330,3.0,9.0,28,0.00,CLR,,0.00,WeatherDisplay:10.37,2013-03-24 18:35:00,
2013-03-24 14:40:00,50.7,17.0,29.70,NNW,332,5.0,9.0,26,0.00,CLR,,0.00,WeatherDisplay:10.37,2013-03-24 18:40:00,
2013-03-24 14:45:00,50.1,16.5,29.70,NW,320,1.0,8.0,26,0.00,CLR,,0.00,WeatherDisplay:10.37,2013-03-24 18:45:00,
2013-03-24 14:50:00,50.2,18.3,29.70,NW,309,3.0,8.0,28,0.00,CLR,,0.00,WeatherDisplay:10.37,2013-03-24 18:50:00,
2013-03-24 14:55:00,50.4,18.4,29.69,NW,307,3.0,6.0,28,0.00,CLR,,0.00,WeatherDisplay:10.37,2013-03-24 18:55:00,
2013-03-24 15:00:00,51.1,19.9,29.69,North,6,5.0,7.0,29,0.00,CLR,,0.00,WeatherDisplay:10.37,2013-03-24 19:00:00,
2013-03-24 15:05:00,51.8,19.7,29.69,North,2,3.0,6.0,28,0.00,CLR,,0.00,WeatherDisplay:10.37,2013-03-24 19:05:00,
2013-03-24 15:11:00,51.1,18.2,29.69,East,90,2.0,6.0,27,0.00,CLR,,0.00,WeatherDisplay:10.37,2013-03-24 19:11:00,
2013-03-24 15:16:00,51.4,19.4,29.69,NE,35,2.0,5.0,28,0.00,CLR,,0.00,WeatherDisplay:10.37,2013-03-24 19:16:00,
2013-03-24 15:21:00,51.5,19.4,29.69,North,1,5.0,8.0,28,0.00,CLR,,0.00,WeatherDisplay:10.37,2013-03-24 19:21:00,
2013-03-24 15:31:00,50.8,17.1,29.68,NW,313,2.0,7.0,26,0.00,CLR,,0.00,WeatherDisplay:10.37,2013-03-24 19:31:00,
2013-03-24 15:36:00,50.4,17.6,29.68,NW,318,2.0,6.0,27,0.00,CLR,,0.00,WeatherDisplay:10.37,2013-03-24 19:36:00,
2013-03-24 15:46:00,50.7,19.6,29.68,North,6,5.0,7.0,29,0.00,CLR,,0.00,WeatherDisplay:10.37,2013-03-24 19:46:00,
2013-03-24 15:51:00,50.9,19.7,29.67,NNE,16,3.0,7.0,29,0.00,CLR,,0.00,WeatherDisplay:10.37,2013-03-24 19:51:00,
2013-03-24 15:56:00,50.9,18.9,29.67,North,8,3.0,7.0,28,0.00,CLR,,0.00,WeatherDisplay:10.37,2013-03-24 19:56:00,
2013-03-24 16:01:00,50.6,16.9,29.67,NW,324,2.0,7.0,26,0.00,CLR,,0.00,WeatherDisplay:10.37,2013-03-24 20:01:00,
2013-03-24 16:06:00,50.2,17.4,29.67,NW,318,1.0,6.0,27,0.00,CLR,,0.00,WeatherDisplay:10.37,2013-03-24 20:06:00,
2013-03-24 16:11:00,50.0,18.1,29.67,NNW,348,3.0,6.0,28,0.00,CLR,,0.00,WeatherDisplay:10.37,2013-03-24 20:11:00,
2013-03-24 16:16:00,49.7,18.7,29.67,North,10,1.0,2.0,29,0.00,CLR,,0.00,WeatherDisplay:10.37,2013-03-24 20:16:00,
2013-03-24 16:21:00,49.6,19.4,29.67,NNW,335,1.0,6.0,30,0.00,CLR,,0.00,WeatherDisplay:10.37,2013-03-24 20:21:00,
2013-03-24 16:31:00,49.6,20.2,29.66,North,8,3.0,7.0,31,0.00,CLR,,0.00,WeatherDisplay:10.37,2013-03-24 20:31:00,
2013-03-24 16:40:00,49.5,20.8,29.66,NNE,12,1.0,6.0,32,0.00,CLR,,0.00,WeatherDisplay:10.37,2013-03-24 20:40:00,
2013-03-24 16:45:00,49.5,20.8,29.65,NE,52,3.0,8.0,32,0.00,CLR,,0.00,WeatherDisplay:10.37,2013-03-24 20:45:00,
2013-03-24 16:50:00,49.3,20.6,29.65,NE,43,0.0,6.0,32,0.00,CLR,,0.00,WeatherDisplay:10.37,2013-03-24 20:50:00,
2013-03-24 16:55:00,49.3,20.6,29.65,NNE,19,1.0,5.0,32,0.00,CLR,,0.00,WeatherDisplay:10.37,2013-03-24 20:55:00,
2013-03-24 17:00:00,49.3,20.6,29.65,NNE,33,3.0,6.0,32,0.00,CLR,,0.00,WeatherDisplay:10.37,2013-03-24 21:00:00,
2013-03-24 17:05:00,49.1,20.5,29.65,NNE,27,2.0,6.0,32,0.00,CLR,,0.00,WeatherDisplay:10.37,2013-03-24 21:05:00,
2013-03-24 17:10:00,49.1,21.2,29.65,NNE,16,3.0,6.0,33,0.00,CLR,,0.00,WeatherDisplay:10.37,2013-03-24 21:10:00,
2013-03-24 17:15:00,48.9,21.0,29.66,NE,40,2.0,6.0,33,0.00,CLR,,0.00,WeatherDisplay:10.37,2013-03-24 21:15:00,
2013-03-24 17:20:00,50.2,22.2,29.78,NE,46,2.0,6.0,33,0.00,CLR,,0.00,WeatherDisplay:10.37,2013-03-24 21:20:00,
2013-03-24 17:25:00,48.4,21.3,29.65,NE,39,1.0,6.0,34,0.00,CLR,,0.00,WeatherDisplay:10.37,2013-03-24 21:25:00,
2013-03-24 17:30:00,48.2,20.4,29.66,NE,37,2.0,6.0,33,0.00,CLR,,0.00,WeatherDisplay:10.37,2013-03-24 21:30:00,
2013-03-24 17:35:00,47.9,21.6,29.66,NE,43,2.0,7.0,35,0.00,CLR,,0.00,WeatherDisplay:10.37,2013-03-24 21:35:00,
2013-03-24 17:40:00,47.7,21.4,29.66,NE,49,1.0,3.0,35,0.00,CLR,,0.00,WeatherDisplay:10.37,2013-03-24 21:40:00,
2013-03-24 17:45:00,47.7,21.3,29.66,NE,38,1.0,5.0,35,0.00,CLR,,0.00,WeatherDisplay:10.37,2013-03-24 21:45:00,
2013-03-24 17:50:00,47.5,21.2,29.66,NE,34,1.0,3.0,35,0.00,CLR,,0.00,WeatherDisplay:10.37,2013-03-24 21:50:00,
2013-03-24 17:55:00,47.5,21.8,29.66,NE,42,1.0,3.0,36,0.00,CLR,,0.00,WeatherDisplay:10.37,2013-03-24 21:55:00,
2013-03-24 18:00:00,47.3,21.0,29.66,ENE,64,1.0,3.0,35,0.00,CLR,,0.00,WeatherDisplay:10.37,2013-03-24 22:00:00,
2013-03-24 18:05:00,47.1,21.5,29.66,ENE,76,1.0,3.0,36,0.00,CLR,,0.00,WeatherDisplay:10.37,2013-03-24 22:05:00,
2013-03-24 18:10:00,46.9,21.3,29.65,ENE,73,3.0,5.0,36,0.00,CLR,,0.00,WeatherDisplay:10.37,2013-03-24 22:10:00,
2013-03-24 18:15:00,46.8,21.2,29.66,ENE,57,2.0,6.0,36,0.00,CLR,,0.00,WeatherDisplay:10.37,2013-03-24 22:15:00,
2013-03-24 18:20:00,46.5,21.0,29.66,NE,43,1.0,4.0,36,0.00,CLR,,0.00,WeatherDisplay:10.37,2013-03-24 22:20:00,
2013-03-24 18:25:00,46.4,20.9,29.66,NE,55,2.0,6.0,36,0.00,CLR,,0.00,WeatherDisplay:10.37,2013-03-24 22:25:00,
2013-03-24 18:30:00,46.0,20.5,29.65,NE,37,3.0,5.0,36,0.00,CLR,,0.00,WeatherDisplay:10.37,2013-03-24 22:30:00,
2013-03-24 18:35:00,45.9,20.4,29.65,NNE,32,1.0,5.0,36,0.00,CLR,,0.00,WeatherDisplay:10.37,2013-03-24 22:35:00,
2013-03-24 18:40:00,45.9,21.0,29.65,NE,53,2.0,4.0,37,0.00,CLR,,0.00,WeatherDisplay:10.37,2013-03-24 22:40:00,
2013-03-24 18:45:00,45.7,20.9,29.64,NE,43,1.0,3.0,37,0.00,CLR,,0.00,WeatherDisplay:10.37,2013-03-24 22:45:00,
2013-03-24 18:50:00,45.5,21.3,29.65,NE,44,2.0,5.0,38,0.00,CLR,,0.00,WeatherDisplay:10.37,2013-03-24 22:50:00,
2013-03-24 18:55:00,45.5,20.7,29.66,NE,51,1.0,3.0,37,0.00,CLR,,0.00,WeatherDisplay:10.37,2013-03-24 22:55:00,
2013-03-24 19:00:00,45.3,20.5,29.66,NE,49,1.0,2.0,37,0.00,CLR,,0.00,WeatherDisplay:10.37,2013-03-24 23:00:00,
2013-03-24 19:05:00,45.3,21.1,29.66,NE,41,1.0,2.0,38,0.00,CLR,,0.00,WeatherDisplay:10.37,2013-03-24 23:05:00,
2013-03-24 19:10:00,45.1,22.8,29.66,NE,43,1.0,2.0,41,0.00,CLR,,0.00,WeatherDisplay:10.37,2013-03-24 23:10:00,
2013-03-24 19:15:00,45.0,21.5,29.66,ENE,69,2.0,3.0,39,0.00,CLR,,0.00,WeatherDisplay:10.37,2013-03-24 23:15:00,
2013-03-24 19:20:00,44.8,21.3,29.67,ENE,67,1.0,3.0,39,0.00,CLR,,0.00,WeatherDisplay:10.37,2013-03-24 23:20:00,
2013-03-24 19:25:00,44.8,21.3,29.67,NE,50,0.0,2.0,39,0.00,CLR,,0.00,WeatherDisplay:10.37,2013-03-24 23:25:00,
2013-03-24 19:30:00,44.6,21.1,29.68,East,90,1.0,2.0,39,0.00,CLR,,0.00,WeatherDisplay:10.37,2013-03-24 23:30:00,
2013-03-24 19:35:00,44.4,21.0,29.68,ESE,122,1.0,2.0,39,0.00,CLR,,0.00,WeatherDisplay:10.37,2013-03-24 23:35:00,
2013-03-24 19:40:00,44.2,21.4,29.67,East,87,1.0,2.0,40,0.00,CLR,,0.00,WeatherDisplay:10.37,2013-03-24 23:40:00,
2013-03-24 19:45:00,44.2,22.6,29.67,ENE,57,0.0,2.0,42,0.00,CLR,,0.00,WeatherDisplay:10.37,2013-03-24 23:45:00,
2013-03-24 19:50:00,44.2,22.6,29.68,NE,45,1.0,2.0,42,0.00,CLR,,0.00,WeatherDisplay:10.37,2013-03-24 23:50:00,
2013-03-24 19:55:00,44.1,22.4,29.68,NE,45,1.0,2.0,42,0.00,CLR,,0.00,WeatherDisplay:10.37,2013-03-24 23:55:00,
2013-03-24 20:01:00,44.1,22.4,29.68,NE,38,2.0,5.0,42,0.00,CLR,,0.00,WeatherDisplay:10.37,2013-03-25 00:01:00,
2013-03-24 20:06:00,43.9,22.2,29.68,NE,53,2.0,7.0,42,0.00,CLR,,0.00,WeatherDisplay:10.37,2013-03-25 00:06:00,
2013-03-24 20:11:00,43.7,22.1,29.68,ENE,57,5.0,7.0,42,0.00,CLR,,0.00,WeatherDisplay:10.37,2013-03-25 00:11:00,
2013-03-24 20:16:00,43.7,22.1,29.68,NE,55,2.0,7.0,42,0.00,CLR,,0.00,WeatherDisplay:10.37,2013-03-25 00:16:00,
2013-03-24 20:21:00,43.5,21.9,29.69,NE,51,3.0,6.0,42,0.00,CLR,,0.00,WeatherDisplay:10.37,2013-03-25 00:21:00,
2013-03-24 20:26:00,43.4,21.8,29.69,NE,54,2.0,5.0,42,0.00,CLR,,0.00,WeatherDisplay:10.37,2013-03-25 00:26:00,
2013-03-24 20:31:00,43.3,22.3,29.69,NE,48,2.0,5.0,43,0.00,CLR,,0.00,WeatherDisplay:10.37,2013-03-25 00:31:00,
2013-03-24 20:36:00,43.3,22.3,29.68,NE,44,2.0,5.0,43,0.00,CLR,,0.00,WeatherDisplay:10.37,2013-03-25 00:36:00,
2013-03-24 20:41:00,43.3,22.3,29.68,NE,43,1.0,3.0,43,0.00,CLR,,0.00,WeatherDisplay:10.37,2013-03-25 00:41:00,
2013-03-24 20:46:00,43.2,22.1,29.68,NE,49,2.0,3.0,43,0.00,CLR,,0.00,WeatherDisplay:10.37,2013-03-25 00:46:00,
2013-03-24 20:56:00,43.2,22.7,29.68,NE,47,2.0,4.0,44,0.00,CLR,,0.00,WeatherDisplay:10.37,2013-03-25 00:56:00,
2013-03-24 21:01:00,43.0,22.5,29.68,NE,50,3.0,4.0,44,0.00,CLR,,0.00,WeatherDisplay:10.37,2013-03-25 01:01:00,
2013-03-24 21:06:00,42.8,21.8,29.69,ENE,58,1.0,4.0,43,0.00,CLR,,0.00,WeatherDisplay:10.37,2013-03-25 01:06:00,
2013-03-24 21:11:00,42.8,21.8,29.69,ENE,77,2.0,4.0,43,0.00,CLR,,0.00,WeatherDisplay:10.37,2013-03-25 01:11:00,
2013-03-24 21:16:00,42.8,21.8,29.69,East,90,1.0,2.0,43,0.00,CLR,,0.00,WeatherDisplay:10.37,2013-03-25 01:16:00,
2013-03-24 21:21:00,42.8,22.3,29.69,East,87,1.0,3.0,44,0.00,CLR,,0.00,WeatherDisplay:10.37,2013-03-25 01:21:00,
2013-03-24 21:26:00,42.6,22.7,29.69,East,83,1.0,3.0,45,0.00,CLR,,0.00,WeatherDisplay:10.37,2013-03-25 01:26:00,
2013-03-24 21:36:00,42.4,22.6,29.69,East,90,1.0,2.0,45,0.00,CLR,,0.00,WeatherDisplay:10.37,2013-03-25 01:36:00,
2013-03-24 21:46:00,42.1,22.8,29.70,East,87,1.0,3.0,46,0.00,CLR,,0.00,WeatherDisplay:10.37,2013-03-25 01:46:00,
2013-03-24 21:56:00,41.9,22.6,29.70,East,90,1.0,3.0,46,0.00,CLR,,0.00,WeatherDisplay:10.37,2013-03-25 01:56:00,
2013-03-24 22:01:00,41.7,22.9,29.70,East,90,1.0,2.0,47,0.00,CLR,,0.00,WeatherDisplay:10.37,2013-03-25 02:01:00,
2013-03-24 22:06:00,41.7,22.9,29.69,East,90,1.0,2.0,47,0.00,CLR,,0.00,WeatherDisplay:10.37,2013-03-25 02:06:00,
2013-03-24 22:11:00,41.5,22.8,29.69,East,98,1.0,2.0,47,0.00,CLR,,0.00,WeatherDisplay:10.37,2013-03-25 02:11:00,
2013-03-24 22:16:00,41.5,22.8,29.69,East,98,1.0,2.0,47,0.00,CLR,,0.00,WeatherDisplay:10.37,2013-03-25 02:16:00,
2013-03-24 22:21:00,41.4,23.1,29.69,East,97,1.0,2.0,48,0.00,CLR,,0.00,WeatherDisplay:10.37,2013-03-25 02:21:00,
2013-03-24 22:26:00,41.4,23.1,29.69,East,99,1.0,3.0,48,0.00,CLR,,0.00,WeatherDisplay:10.37,2013-03-25 02:26:00,
2013-03-24 22:36:00,41.2,23.0,29.68,East,95,0.0,3.0,48,0.00,CLR,,0.00,WeatherDisplay:10.37,2013-03-25 02:36:00,
2013-03-24 22:45:00,41.0,23.3,29.68,SSE,163,1.0,3.0,49,0.00,CLR,,0.00,WeatherDisplay:10.37,2013-03-25 02:45:00,
2013-03-24 22:50:00,40.6,24.4,29.68,SE,146,1.0,4.0,52,0.00,CLR,,0.00,WeatherDisplay:10.37,2013-03-25 02:50:00,
2013-03-24 22:55:00,40.3,24.5,29.68,SE,136,1.0,4.0,53,0.00,CLR,,0.00,WeatherDisplay:10.37,2013-03-25 02:55:00,
2013-03-24 23:00:00,40.1,24.8,29.67,SE,143,1.0,3.0,54,0.00,CLR,,0.00,WeatherDisplay:10.37,2013-03-25 03:00:00,
2013-03-24 23:05:00,39.9,24.6,29.67,SSE,167,0.0,2.0,54,0.00,CLR,,0.00,WeatherDisplay:10.37,2013-03-25 03:05:00,
2013-03-24 23:10:00,39.9,25.0,29.67,SSE,154,0.0,2.0,55,0.00,CLR,,0.00,WeatherDisplay:10.37,2013-03-25 03:10:00,
2013-03-24 23:15:00,39.9,25.0,29.67,ESE,111,0.0,2.0,55,0.00,CLR,,0.00,WeatherDisplay:10.37,2013-03-25 03:15:00,
2013-03-24 23:20:00,39.7,25.3,29.66,ESE,104,1.0,2.0,56,0.00,CLR,,0.00,WeatherDisplay:10.37,2013-03-25 03:20:00,
2013-03-24 23:25:00,39.7,25.3,29.66,East,97,0.0,2.0,56,0.00,CLR,,0.00,WeatherDisplay:10.37,2013-03-25 03:25:00,
2013-03-24 23:30:00,39.7,25.3,29.66,East,85,1.0,2.0,56,0.00,CLR,,0.00,WeatherDisplay:10.37,2013-03-25 03:30:00,
2013-03-24 23:35:00,39.7,25.3,29.65,NE,56,0.0,2.0,56,0.00,CLR,,0.00,WeatherDisplay:10.37,2013-03-25 03:35:00,
2013-03-24 23:40:00,39.6,25.1,29.65,NE,45,0.0,1.0,56,0.00,CLR,,0.00,WeatherDisplay:10.37,2013-03-25 03:40:00,
2013-03-24 23:45:00,39.6,25.1,29.65,NE,45,0.0,1.0,56,0.00,CLR,,0.00,WeatherDisplay:10.37,2013-03-25 03:45:00,
2013-03-24 23:50:00,39.6,25.1,29.64,NE,45,0.0,1.0,56,0.00,CLR,,0.00,WeatherDisplay:10.37,2013-03-25 03:50:00,
2013-03-24 23:55:00,39.4,25.4,29.64,NE,45,0.0,1.0,57,0.00,CLR,,0.00,WeatherDisplay:10.37,2013-03-25 03:55:00,